Time;durP1;ratioP1;P1;durP2;ratioP2;P2;SDS_P1;SDS_P2;PMS_P1;PMS_P2;Temp;Humidity;BMP_temperature;BMP_pressure;BME280_temperature;BME280_humidity;BME280_pressure;Samples;Min_cycle;Max_cycle;Signal;HPM_P1;HPM_P2
2023/06/18 00:00:36;;;;;;;9.95;6.10;;;18.50;99.90;;;;;;5092233;28;20205;-70
2023/06/18 00:03:01;;;;;;;8.10;7.50;;;18.60;99.90;;;;;;5092497;28;20169;-70
2023/06/18 00:05:27;;;;;;;9.10;6.00;;;18.70;99.90;;;;;;5092071;28;20251;-70
2023/06/18 00:07:53;;;;;;;7.28;6.57;;;18.90;99.90;;;;;;5092327;28;20234;-70
2023/06/18 00:10:18;;;;;;;7.40;6.35;;;19.00;99.90;;;;;;5092750;28;20705;-70
2023/06/18 00:12:44;;;;;;;7.25;6.65;;;19.10;99.90;;;;;;5092270;28;20191;-70
2023/06/18 00:15:10;;;;;;;7.07;6.38;;;19.20;99.90;;;;;;5092347;28;20205;-70
2023/06/18 00:17:35;;;;;;;7.22;6.63;;;19.30;99.90;;;;;;5092062;28;20642;-70
2023/06/18 00:20:03;;;;;;;6.15;5.57;;;19.30;99.90;;;;;;5073855;28;20547;-70
2023/06/18 00:22:28;;;;;;;10.90;6.75;;;19.30;99.90;;;;;;5092071;28;20165;-70
2023/06/18 00:24:54;;;;;;;9.13;6.07;;;19.30;99.90;;;;;;5092112;28;20246;-70
2023/06/18 00:27:21;;;;;;;6.43;5.82;;;19.20;99.90;;;;;;5091955;28;20180;-70
2023/06/18 00:29:47;;;;;;;6.97;6.38;;;19.10;99.90;;;;;;5091811;28;20169;-70
2023/06/18 00:32:15;;;;;;;7.05;6.38;;;19.10;99.90;;;;;;5091806;28;20169;-70
2023/06/18 00:34:41;;;;;;;8.13;7.32;;;19.10;99.90;;;;;;5089022;28;20751;-70
2023/06/18 00:37:09;;;;;;;7.82;7.03;;;19.10;99.90;;;;;;5080127;28;20202;-70
2023/06/18 00:39:36;;;;;;;13.20;7.40;;;19.10;99.90;;;;;;5071275;28;20170;-70
2023/06/18 00:42:02;;;;;;;7.82;7.10;;;19.10;99.90;;;;;;5071641;28;20177;-70
2023/06/18 00:44:28;;;;;;;7.45;6.85;;;19.00;99.90;;;;;;5080974;28;20739;-70
2023/06/18 00:46:56;;;;;;;7.32;6.70;;;18.90;99.90;;;;;;5091820;28;20262;-70
2023/06/18 00:49:22;;;;;;;6.70;6.20;;;18.90;99.90;;;;;;5073329;28;20173;-70
2023/06/18 00:51:48;;;;;;;7.63;6.93;;;18.80;99.90;;;;;;5091763;28;20221;-70
2023/06/18 00:54:15;;;;;;;6.88;6.28;;;18.60;99.90;;;;;;5091222;28;20169;-70
2023/06/18 00:56:51;;;;;;;7.57;6.57;;;18.60;99.90;;;;;;5091542;28;20173;-70
2023/06/18 00:59:22;;;;;;;7.07;6.53;;;18.60;99.90;;;;;;5091361;28;20161;-70
2023/06/18 01:01:51;;;;;;;8.52;6.75;;;18.40;99.90;;;;;;5091728;28;20170;-70
2023/06/18 01:04:17;;;;;;;8.68;7.80;;;18.30;99.90;;;;;;5073164;28;20196;-70
2023/06/18 01:06:43;;;;;;;9.45;8.38;;;18.20;99.90;;;;;;5091421;28;20173;-70
2023/06/18 01:09:12;;;;;;;7.68;7.03;;;18.10;99.90;;;;;;5090784;28;20672;-70
2023/06/18 01:11:40;;;;;;;10.05;9.15;;;18.00;99.90;;;;;;5091170;28;20246;-70
2023/06/18 01:14:09;;;;;;;7.90;7.20;;;17.90;99.90;;;;;;5091404;28;20507;-70
2023/06/18 01:16:46;;;;;;;9.65;8.63;;;17.80;99.90;;;;;;5091358;28;20169;-70
2023/06/18 01:19:21;;;;;;;8.47;7.67;;;17.80;99.90;;;;;;5091146;28;20169;-70
2023/06/18 01:21:54;;;;;;;8.77;7.95;;;17.70;99.90;;;;;;5073211;28;20169;-70
2023/06/18 01:24:24;;;;;;;9.55;8.65;;;17.60;99.90;;;;;;5091012;28;20205;-70
2023/06/18 01:26:51;;;;;;;7.82;7.05;;;17.50;99.90;;;;;;5073065;28;20205;-70
2023/06/18 01:29:17;;;;;;;8.43;7.63;;;17.50;99.90;;;;;;5073018;28;20177;-70
2023/06/18 01:31:44;;;;;;;8.10;7.40;;;17.40;99.90;;;;;;5072904;28;20674;-70
2023/06/18 01:34:10;;;;;;;8.52;6.97;;;17.40;99.90;;;;;;5073077;28;20177;-70
2023/06/18 01:36:35;;;;;;;9.50;8.50;;;17.30;99.90;;;;;;5091080;28;20540;-70
2023/06/18 01:39:26;;;;;;;7.97;7.17;;;17.40;99.90;;;;;;5090988;28;20185;-70
2023/06/18 01:42:00;;;;;;;9.50;7.70;;;17.30;99.90;;;;;;5072909;28;20549;-70
2023/06/18 01:44:29;;;;;;;7.65;6.75;;;17.30;99.90;;;;;;5072793;28;20204;-70
2023/06/18 01:46:58;;;;;;;9.52;7.32;;;17.30;99.90;;;;;;5072867;28;20173;-70
2023/06/18 01:49:24;;;;;;;8.70;7.00;;;17.30;99.90;;;;;;5090763;28;20169;-70
2023/06/18 01:51:52;;;;;;;10.57;6.93;;;17.30;99.90;;;;;;5091034;28;20205;-70
2023/06/18 01:54:20;;;;;;;7.88;7.07;;;17.30;99.90;;;;;;5072730;28;20187;-70
2023/06/18 01:56:45;;;;;;;11.23;7.87;;;17.30;99.90;;;;;;5090892;28;20528;-70
2023/06/18 01:59:12;;;;;;;8.50;7.53;;;17.20;99.90;;;;;;5090857;28;20245;-70
2023/06/18 02:01:40;;;;;;;9.35;6.88;;;17.20;99.90;;;;;;5090994;28;20177;-70
2023/06/18 02:04:06;;;;;;;8.30;7.32;;;17.20;99.90;;;;;;5090673;28;20181;-70
2023/06/18 02:06:31;;;;;;;8.40;7.60;;;17.10;99.90;;;;;;5090895;28;20260;-70
2023/06/18 02:08:57;;;;;;;9.18;8.27;;;17.10;99.90;;;;;;5090694;28;20526;-70
2023/06/18 02:11:23;;;;;;;8.57;7.77;;;17.10;99.90;;;;;;5090419;28;20223;-70
2023/06/18 02:13:48;;;;;;;7.97;7.27;;;17.10;99.90;;;;;;5090994;28;20683;-70
2023/06/18 02:16:14;;;;;;;12.77;8.07;;;17.10;99.90;;;;;;5090854;28;20264;-70
2023/06/18 02:18:40;;;;;;;7.93;7.23;;;17.00;99.90;;;;;;5090668;28;20213;-70
2023/06/18 02:21:07;;;;;;;8.20;7.37;;;17.00;99.90;;;;;;5090618;28;20169;-70
2023/06/18 02:23:33;;;;;;;8.10;7.17;;;17.00;99.90;;;;;;5090896;28;20177;-70
2023/06/18 02:25:58;;;;;;;10.10;7.10;;;17.00;99.90;;;;;;5072772;28;20204;-70
2023/06/18 02:28:24;;;;;;;9.10;7.83;;;17.00;99.90;;;;;;5091656;28;20306;-70
2023/06/18 02:30:50;;;;;;;9.93;7.60;;;16.90;99.90;;;;;;5076009;28;20283;-70
2023/06/18 02:33:17;;;;;;;8.37;7.30;;;16.90;99.90;;;;;;5075951;28;20169;-70
2023/06/18 02:35:43;;;;;;;10.43;7.23;;;16.90;99.90;;;;;;5076016;28;20339;-70
2023/06/18 02:38:09;;;;;;;10.60;8.48;;;16.80;99.90;;;;;;5094763;28;20169;-70
2023/06/18 02:40:35;;;;;;;10.53;7.80;;;16.80;99.90;;;;;;5093757;28;20185;-70
2023/06/18 02:43:05;;;;;;;8.77;7.93;;;16.80;99.90;;;;;;5094215;28;20166;-69
2023/06/18 02:45:31;;;;;;;8.80;7.90;;;16.70;99.90;;;;;;5093756;28;20193;-70
2023/06/18 02:47:57;;;;;;;10.13;8.50;;;16.70;99.90;;;;;;5093027;28;20180;-70
2023/06/18 02:50:23;;;;;;;8.73;7.93;;;16.60;99.90;;;;;;5092950;28;20283;-70
2023/06/18 02:52:49;;;;;;;8.80;8.00;;;16.60;99.90;;;;;;5093481;28;20197;-70
2023/06/18 02:55:15;;;;;;;8.50;7.80;;;16.50;99.90;;;;;;5093561;28;20193;-70
2023/06/18 02:57:41;;;;;;;11.40;8.37;;;16.50;99.90;;;;;;5075538;28;20174;-69
2023/06/18 03:00:11;;;;;;;9.27;8.37;;;16.50;99.90;;;;;;5093237;28;20166;-70
2023/06/18 03:02:38;;;;;;;9.13;8.17;;;16.50;99.90;;;;;;5100665;28;20200;-75
2023/06/18 03:05:04;;;;;;;9.27;8.33;;;16.50;99.90;;;;;;5107928;28;20193;-74
2023/06/18 03:07:30;;;;;;;13.63;8.03;;;16.50;99.90;;;;;;5108364;28;20211;-74
2023/06/18 03:09:56;;;;;;;9.90;7.43;;;16.40;99.90;;;;;;5109491;28;20170;-75
2023/06/18 03:12:22;;;;;;;9.90;8.63;;;16.40;99.90;;;;;;5092310;28;20177;-76
2023/06/18 03:14:48;;;;;;;11.23;7.87;;;16.30;99.90;;;;;;5091689;28;20223;-72
2023/06/18 03:17:14;;;;;;;9.17;8.37;;;16.40;99.90;;;;;;5108644;28;20196;-77
2023/06/18 03:19:40;;;;;;;11.60;8.23;;;16.30;99.90;;;;;;5090908;28;20204;-75
2023/06/18 03:22:05;;;;;;;9.03;8.17;;;16.30;99.90;;;;;;5110267;28;20192;-77
2023/06/18 03:24:32;;;;;;;9.13;8.23;;;16.30;99.90;;;;;;5111016;28;20639;-73
2023/06/18 03:26:59;;;;;;;9.67;8.67;;;16.30;99.90;;;;;;5110849;28;20192;-75
2023/06/18 03:29:25;;;;;;;10.17;8.80;;;16.30;99.90;;;;;;5092791;28;20181;-75
2023/06/18 03:31:53;;;;;;;17.13;9.03;;;16.30;99.90;;;;;;5112068;28;20209;-73
2023/06/18 03:34:22;;;;;;;9.70;8.70;;;16.30;99.90;;;;;;5094078;28;20204;-76
2023/06/18 03:36:49;;;;;;;10.10;9.20;;;16.30;99.90;;;;;;5093166;28;20255;-76
2023/06/18 03:39:16;;;;;;;15.60;9.13;;;16.20;99.90;;;;;;5093093;28;20173;-74
2023/06/18 03:41:42;;;;;;;14.47;9.50;;;16.20;99.90;;;;;;5109887;28;20173;-73
2023/06/18 03:44:08;;;;;;;12.10;9.50;;;16.20;99.90;;;;;;5092554;28;20181;-73
2023/06/18 03:46:35;;;;;;;12.50;9.40;;;16.30;99.90;;;;;;5109738;28;20185;-75
2023/06/18 03:49:01;;;;;;;9.73;8.83;;;16.30;99.90;;;;;;5092983;28;20177;-75
2023/06/18 03:51:27;;;;;;;11.40;9.90;;;16.40;99.90;;;;;;5110903;28;20221;-76
2023/06/18 03:53:53;;;;;;;12.13;9.73;;;16.40;99.90;;;;;;5102732;28;20164;-70
2023/06/18 03:56:19;;;;;;;10.90;9.97;;;16.40;99.90;;;;;;5092340;28;20722;-70
2023/06/18 03:58:46;;;;;;;11.20;10.10;;;16.50;99.90;;;;;;5092725;28;20544;-70
2023/06/18 04:01:11;;;;;;;9.57;8.57;;;16.60;99.90;;;;;;5092318;28;20512;-68
2023/06/18 04:03:37;;;;;;;9.20;8.30;;;16.60;99.90;;;;;;5074300;28;20204;-69
2023/06/18 04:06:03;;;;;;;9.30;8.17;;;16.70;99.90;;;;;;5074437;28;20564;-70
2023/06/18 04:08:29;;;;;;;10.00;8.93;;;16.70;99.90;;;;;;5092540;28;20193;-69
2023/06/18 04:10:55;;;;;;;9.87;8.87;;;16.80;99.90;;;;;;5091710;28;20205;-70
2023/06/18 04:13:22;;;;;;;10.27;8.70;;;16.80;99.90;;;;;;5092498;28;20638;-70
2023/06/18 04:15:48;;;;;;;9.60;8.70;;;16.80;99.90;;;;;;5073937;28;20188;-69
2023/06/18 04:18:14;;;;;;;11.97;8.77;;;16.90;99.90;;;;;;5073957;28;20197;-69
2023/06/18 04:20:40;;;;;;;12.00;8.40;;;17.10;99.90;;;;;;5091920;28;20182;-69
2023/06/18 04:23:06;;;;;;;11.40;9.57;;;17.20;99.90;;;;;;5092092;28;20176;-69
2023/06/18 04:25:32;;;;;;;9.63;8.60;;;17.30;99.90;;;;;;5091707;28;20201;-69
2023/06/18 04:27:58;;;;;;;10.85;9.95;;;17.30;99.90;;;;;;5092406;28;20583;-69
2023/06/18 04:30:24;;;;;;;18.27;17.10;;;17.40;99.90;;;;;;5091691;28;20189;-69
2023/06/18 04:32:50;;;;;;;10.68;8.75;;;17.50;99.90;;;;;;5092071;28;20165;-69
2023/06/18 04:35:16;;;;;;;9.25;8.35;;;17.70;99.90;;;;;;5092179;28;20182;-70
2023/06/18 04:37:42;;;;;;;11.33;10.27;;;17.80;99.90;;;;;;5073525;28;20230;-70
2023/06/18 04:40:09;;;;;;;11.83;10.83;;;18.00;99.90;;;;;;5070223;28;20619;-70
2023/06/18 04:42:37;;;;;;;9.13;8.32;;;18.30;99.90;;;;;;5071837;28;20245;-69
2023/06/18 04:45:04;;;;;;;7.97;7.28;;;18.50;99.90;;;;;;5071359;28;20197;-69
2023/06/18 04:47:30;;;;;;;8.15;7.40;;;18.80;99.90;;;;;;5085867;28;20203;-69
2023/06/18 04:49:55;;;;;;;8.60;7.80;;;19.00;99.90;;;;;;5073507;28;20173;-69
2023/06/18 04:52:21;;;;;;;7.53;6.72;;;19.10;99.90;;;;;;5072837;28;20257;-70
2023/06/18 04:54:47;;;;;;;9.48;8.48;;;19.30;99.90;;;;;;5091667;28;20224;-69
2023/06/18 04:57:13;;;;;;;8.27;7.53;;;19.40;99.90;;;;;;5091669;28;20197;-70
2023/06/18 04:59:39;;;;;;;9.80;8.90;;;19.50;99.90;;;;;;5091434;28;20568;-70
2023/06/18 05:02:06;;;;;;;8.10;7.30;;;19.60;99.90;;;;;;5091678;28;20653;-69
2023/06/18 05:04:32;;;;;;;10.50;7.57;;;19.70;99.90;;;;;;5091425;28;20561;-69
2023/06/18 05:06:58;;;;;;;7.60;7.00;;;19.70;99.90;;;;;;5091430;28;20185;-69
2023/06/18 05:09:25;;;;;;;9.25;7.25;;;19.90;99.90;;;;;;5091163;28;20199;-70
2023/06/18 05:11:51;;;;;;;6.97;6.38;;;20.00;99.90;;;;;;5091329;28;20197;-70
2023/06/18 05:14:16;;;;;;;7.65;6.45;;;20.10;99.90;;;;;;5091379;28;20222;-70
2023/06/18 05:16:42;;;;;;;7.65;6.80;;;20.10;99.90;;;;;;5091237;28;20162;-70
2023/06/18 05:19:08;;;;;;;7.38;6.57;;;20.10;99.90;;;;;;5090602;28;20174;-69
2023/06/18 05:21:33;;;;;;;9.60;6.93;;;20.20;99.90;;;;;;5072814;28;20223;-69
2023/06/18 05:23:59;;;;;;;7.63;6.85;;;20.30;99.90;;;;;;5091105;28;20209;-70
2023/06/18 05:26:25;;;;;;;7.03;6.32;;;20.30;99.90;;;;;;5091109;28;20189;-70
2023/06/18 05:28:51;;;;;;;7.80;6.20;;;20.30;99.90;;;;;;5091309;28;20176;-70
2023/06/18 05:31:16;;;;;;;7.70;6.90;;;20.40;99.90;;;;;;5090687;28;20200;-69
2023/06/18 05:33:42;;;;;;;6.70;6.10;;;20.50;99.90;;;;;;5079660;28;20618;-69
2023/06/18 05:36:07;;;;;;;6.57;5.95;;;20.60;99.90;;;;;;5070760;28;20224;-70
2023/06/18 05:38:33;;;;;;;8.35;6.60;;;20.70;99.90;;;;;;5087221;28;20183;-70
2023/06/18 05:40:58;;;;;;;7.18;6.50;;;20.70;99.90;;;;;;5090624;28;20184;-69
2023/06/18 05:43:24;;;;;;;6.93;6.22;;;20.80;99.90;;;;;;5090098;28;20181;-69
2023/06/18 05:45:50;;;;;;;9.23;6.43;;;20.90;99.90;;;;;;5090790;28;20268;-69
2023/06/18 05:48:15;;;;;;;8.68;6.65;;;20.90;99.90;;;;;;5091080;28;20514;-69
2023/06/18 05:50:42;;;;;;;6.85;6.25;;;21.00;99.90;;;;;;5090162;28;20201;-69
2023/06/18 05:53:07;;;;;;;7.38;6.70;;;21.10;99.90;;;;;;5090647;28;20173;-69
2023/06/18 05:55:33;;;;;;;6.75;5.95;;;21.10;99.90;;;;;;5090553;28;20208;-69
2023/06/18 05:57:59;;;;;;;8.25;6.93;;;21.20;99.90;;;;;;5090920;28;20263;-69
2023/06/18 06:00:26;;;;;;;7.65;6.63;;;21.30;99.90;;;;;;5090309;28;20174;-69
2023/06/18 06:02:52;;;;;;;6.78;6.10;;;21.50;99.90;;;;;;5091025;28;20193;-69
2023/06/18 06:05:17;;;;;;;7.35;6.50;;;21.60;99.90;;;;;;5094337;28;20278;-69
2023/06/18 06:07:43;;;;;;;6.55;5.95;;;21.80;99.90;;;;;;5094388;28;20189;-70
2023/06/18 06:10:09;;;;;;;6.28;5.72;;;22.00;99.90;;;;;;5094281;28;20177;-69
2023/06/18 06:12:35;;;;;;;6.38;5.70;;;22.30;99.90;;;;;;5094139;28;20260;-69
2023/06/18 06:15:01;;;;;;;6.72;5.95;;;22.50;99.90;;;;;;5094632;28;20182;-69
2023/06/18 06:17:27;;;;;;;6.72;5.95;;;22.70;99.90;;;;;;5094278;28;20639;-69
2023/06/18 06:19:53;;;;;;;8.20;6.18;;;23.00;99.90;;;;;;5093916;28;20615;-69
2023/06/18 06:22:19;;;;;;;6.38;5.85;;;23.30;99.90;;;;;;5094413;28;20173;-69
2023/06/18 06:24:44;;;;;;;6.22;5.63;;;23.70;99.90;;;;;;5094566;28;20229;-69
2023/06/18 06:27:10;;;;;;;8.98;5.35;;;23.90;99.90;;;;;;5094178;28;20178;-69
2023/06/18 06:29:36;;;;;;;7.63;5.85;;;24.00;99.90;;;;;;5075819;28;20173;-69
2023/06/18 06:32:01;;;;;;;10.20;6.03;;;24.20;99.90;;;;;;5076061;28;20201;-69
2023/06/18 06:34:27;;;;;;;8.45;6.13;;;24.40;99.90;;;;;;5075536;28;20197;-69
2023/06/18 06:36:52;;;;;;;6.60;6.00;;;24.70;99.90;;;;;;5085579;28;20176;-69
2023/06/18 06:39:18;;;;;;;6.25;5.65;;;24.90;99.90;;;;;;5079340;28;20639;-69
2023/06/18 06:41:44;;;;;;;7.07;5.50;;;25.10;99.90;;;;;;5075797;28;20239;-69
2023/06/18 06:44:10;;;;;;;6.20;5.55;;;25.20;99.90;;;;;;5093634;28;20162;-69
2023/06/18 06:46:35;;;;;;;7.18;6.22;;;25.30;99.90;;;;;;5093868;28;20270;-69
2023/06/18 06:49:03;;;;;;;6.85;6.03;;;25.40;99.90;;;;;;5075605;28;20173;-69
2023/06/18 06:51:28;;;;;;;7.15;6.47;;;25.50;99.90;;;;;;5075312;28;20201;-69
2023/06/18 06:53:54;;;;;;;10.65;5.00;;;25.70;99.90;;;;;;5093933;28;20166;-69
2023/06/18 06:56:20;;;;;;;7.95;6.45;;;25.90;99.90;;;;;;5093990;28;20234;-69
2023/06/18 06:58:45;;;;;;;5.93;5.30;;;26.20;99.90;;;;;;5093799;28;20597;-69
2023/06/18 07:01:11;;;;;;;6.38;5.75;;;26.40;99.90;;;;;;5074458;28;20184;-69
2023/06/18 07:03:36;;;;;;;7.45;6.15;;;26.60;99.90;;;;;;5093622;28;20200;-69
2023/06/18 07:06:06;;;;;;;7.43;6.13;;;26.90;99.90;;;;;;5075497;28;20195;-69
2023/06/18 07:08:31;;;;;;;6.85;6.25;;;27.20;99.90;;;;;;5093137;28;20197;-69
2023/06/18 07:10:57;;;;;;;7.05;6.35;;;27.30;99.90;;;;;;5075025;28;20201;-69
2023/06/18 07:13:22;;;;;;;7.80;5.35;;;27.50;99.90;;;;;;5093460;28;20707;-69
2023/06/18 07:15:48;;;;;;;6.97;5.15;;;27.70;99.90;;;;;;5093258;28;20225;-69
2023/06/18 07:18:14;;;;;;;5.82;5.32;;;27.80;99.90;;;;;;5093483;28;20635;-69
2023/06/18 07:20:40;;;;;;;5.93;5.43;;;28.10;99.90;;;;;;5093115;28;20169;-69
2023/06/18 07:23:05;;;;;;;5.97;5.38;;;28.30;99.90;;;;;;5092681;28;20188;-69
2023/06/18 07:25:31;;;;;;;5.68;5.18;;;28.60;99.90;;;;;;5093235;28;20189;-69
2023/06/18 07:27:56;;;;;;;6.45;5.85;;;28.50;98.30;;;;;;5093399;28;20177;-69
2023/06/18 07:30:22;;;;;;;5.88;4.82;;;28.50;97.90;;;;;;5075065;28;20225;-69
2023/06/18 07:32:47;;;;;;;5.80;5.22;;;28.40;96.10;;;;;;5093083;28;20166;-69
2023/06/18 07:35:13;;;;;;;5.43;4.93;;;28.30;96.50;;;;;;5092918;28;20186;-69
2023/06/18 07:37:39;;;;;;;5.88;5.20;;;28.30;95.50;;;;;;5093082;28;20161;-69
2023/06/18 07:40:05;;;;;;;7.32;5.32;;;28.30;95.50;;;;;;5092914;28;20174;-70
2023/06/18 07:42:31;;;;;;;5.70;5.20;;;28.30;94.00;;;;;;5092747;28;20185;-69
2023/06/18 07:44:57;;;;;;;11.27;5.45;;;28.40;94.90;;;;;;5092918;28;20192;-69
2023/06/18 07:47:22;;;;;;;6.63;5.30;;;28.60;94.70;;;;;;5092628;28;20223;-69
2023/06/18 07:49:48;;;;;;;10.18;5.50;;;28.90;95.60;;;;;;5074545;28;20181;-69
2023/06/18 07:52:14;;;;;;;7.28;5.63;;;29.20;94.70;;;;;;5092684;28;20614;-69
2023/06/18 07:54:39;;;;;;;6.60;5.32;;;29.60;93.70;;;;;;5092932;28;20189;-69
2023/06/18 07:57:05;;;;;;;5.43;4.85;;;29.90;93.30;;;;;;5092683;28;20207;-69
2023/06/18 07:59:31;;;;;;;5.72;5.22;;;30.10;92.60;;;;;;5092508;28;20209;-69
2023/06/18 08:01:56;;;;;;;6.05;5.03;;;30.40;90.90;;;;;;5092745;28;20247;-69
2023/06/18 08:04:22;;;;;;;5.95;5.40;;;30.80;93.50;;;;;;5092427;28;20189;-69
2023/06/18 08:06:50;;;;;;;6.05;5.00;;;31.20;92.20;;;;;;5074035;28;20570;-72
2023/06/18 08:09:16;;;;;;;6.47;4.95;;;31.50;89.90;;;;;;5091918;28;20181;-69
2023/06/18 08:11:42;;;;;;;5.22;4.72;;;31.60;91.00;;;;;;5092358;28;20207;-69
2023/06/18 08:14:07;;;;;;;5.72;4.95;;;31.90;91.10;;;;;;5074085;28;20169;-69
2023/06/18 08:16:33;;;;;;;7.45;5.93;;;32.10;90.70;;;;;;5092090;28;20165;-69
2023/06/18 08:18:59;;;;;;;5.97;5.45;;;32.30;90.30;;;;;;5092297;28;20248;-69
2023/06/18 08:21:24;;;;;;;6.78;5.60;;;32.30;86.10;;;;;;5091962;28;20180;-69
2023/06/18 08:23:51;;;;;;;5.30;4.90;;;32.40;87.80;;;;;;5092277;28;20196;-69
2023/06/18 08:26:19;;;;;;;6.18;5.57;;;32.30;82.60;;;;;;5091861;28;20185;-70
2023/06/18 08:28:44;;;;;;;7.75;4.90;;;32.20;85.40;;;;;;5091879;28;20243;-70
2023/06/18 08:31:10;;;;;;;10.43;6.68;;;32.20;86.60;;;;;;5091685;28;20229;-69
2023/06/18 08:33:36;;;;;;;7.82;5.85;;;32.20;85.30;;;;;;5091972;28;20169;-69
2023/06/18 08:36:01;;;;;;;5.55;5.03;;;32.30;83.60;;;;;;5086100;28;20210;-69
2023/06/18 08:38:27;;;;;;;5.45;4.95;;;32.50;79.50;;;;;;5063723;28;20201;-68
2023/06/18 08:41:01;;;;;;;7.10;4.80;;;32.80;85.50;;;;;;5091492;28;20179;-69
2023/06/18 08:43:36;;;;;;;6.50;4.85;;;33.40;82.20;;;;;;5090938;28;20227;-69
2023/06/18 08:46:13;;;;;;;6.32;4.72;;;33.80;77.00;;;;;;5073349;28;20283;-70
2023/06/18 08:48:52;;;;;;;5.82;4.72;;;34.00;74.00;;;;;;5091878;28;20192;-69
2023/06/18 08:51:18;;;;;;;6.35;5.22;;;34.30;76.70;;;;;;5091119;28;20201;-68
2023/06/18 08:53:55;;;;;;;9.18;5.03;;;34.60;76.50;;;;;;5091621;28;20185;-69
2023/06/18 08:56:22;;;;;;;5.78;5.28;;;34.70;74.20;;;;;;5091102;28;20189;-69
2023/06/18 08:58:50;;;;;;;5.32;4.82;;;34.80;72.90;;;;;;5091603;28;20169;-69
2023/06/18 09:01:18;;;;;;;5.25;4.75;;;35.00;73.00;;;;;;5090912;28;20199;-69
2023/06/18 09:03:44;;;;;;;5.68;5.10;;;35.30;72.40;;;;;;5073496;28;20270;-69
2023/06/18 09:06:11;;;;;;;5.28;4.78;;;35.10;67.70;;;;;;5091279;28;20190;-70
2023/06/18 09:08:37;;;;;;;5.60;5.00;;;35.00;67.80;;;;;;5090467;28;20246;-69
2023/06/18 09:11:05;;;;;;;5.07;4.57;;;34.90;69.60;;;;;;5090693;28;20288;-70
2023/06/18 09:13:30;;;;;;;5.70;4.90;;;35.00;64.70;;;;;;5091197;28;20176;-69
2023/06/18 09:15:56;;;;;;;7.45;5.22;;;35.10;65.90;;;;;;5091375;28;20193;-68
2023/06/18 09:18:24;;;;;;;7.07;5.53;;;34.90;66.60;;;;;;5091420;28;20185;-69
2023/06/18 09:20:52;;;;;;;5.65;4.65;;;34.70;69.30;;;;;;5071586;28;20211;-70
2023/06/18 09:23:17;;;;;;;5.85;5.20;;;34.10;69.70;;;;;;5091074;28;20177;-69
2023/06/18 09:25:49;;;;;;;5.35;4.85;;;33.40;71.30;;;;;;5072616;28;20193;-70
2023/06/18 09:28:15;;;;;;;10.90;5.80;;;33.40;74.60;;;;;;5090551;28;20170;-69
2023/06/18 09:30:50;;;;;;;7.03;5.25;;;33.60;71.00;;;;;;5072614;28;20212;-69
2023/06/18 09:33:16;;;;;;;5.82;5.32;;;33.30;70.40;;;;;;5072797;28;20605;-68
2023/06/18 09:35:41;;;;;;;5.95;4.95;;;33.30;71.70;;;;;;5090951;28;20221;-69
2023/06/18 09:38:09;;;;;;;5.45;4.80;;;33.40;72.40;;;;;;5062130;28;20265;-69
2023/06/18 09:40:35;;;;;;;4.93;4.53;;;33.60;69.40;;;;;;5078701;28;20351;-69
2023/06/18 09:43:00;;;;;;;5.63;5.13;;;34.10;71.70;;;;;;5095015;28;20263;-69
2023/06/18 09:45:26;;;;;;;6.78;4.25;;;34.50;65.40;;;;;;5094735;28;20193;-70
2023/06/18 09:47:52;;;;;;;6.30;4.53;;;34.00;60.30;;;;;;5095059;28;20535;-70
2023/06/18 09:50:18;;;;;;;6.28;4.18;;;33.90;65.50;;;;;;5076266;28;20598;-70
2023/06/18 09:52:45;;;;;;;5.00;4.57;;;34.00;60.70;;;;;;5095195;28;20162;-70
2023/06/18 09:55:31;;;;;;;4.82;3.83;;;33.80;58.70;;;;;;5094466;28;20185;-70
2023/06/18 09:57:58;;;;;;;5.28;4.68;;;33.90;58.60;;;;;;5076599;28;20176;-69
2023/06/18 10:00:25;;;;;;;4.57;4.18;;;34.10;60.80;;;;;;5076136;28;20264;-68
2023/06/18 10:02:50;;;;;;;5.88;4.80;;;34.30;57.50;;;;;;5076967;28;20184;-70
2023/06/18 10:05:16;;;;;;;4.72;4.32;;;34.60;62.00;;;;;;5094385;28;20190;-69
2023/06/18 10:07:43;;;;;;;5.10;4.38;;;34.90;62.20;;;;;;5076441;28;20200;-69
2023/06/18 10:10:16;;;;;;;9.32;4.40;;;35.00;59.20;;;;;;5094380;28;20173;-69
2023/06/18 10:12:48;;;;;;;5.07;4.57;;;34.80;60.50;;;;;;5094924;28;20254;-70
2023/06/18 10:15:15;;;;;;;5.57;4.28;;;35.10;56.70;;;;;;5094363;28;20185;-69
2023/06/18 10:17:47;;;;;;;5.15;4.65;;;35.50;56.10;;;;;;5076400;28;20173;-69
2023/06/18 10:20:14;;;;;;;7.35;4.85;;;36.10;58.50;;;;;;5094486;28;20180;-69
2023/06/18 10:22:54;;;;;;;6.90;4.20;;;36.60;56.20;;;;;;5076169;28;20224;-69
2023/06/18 10:25:21;;;;;;;6.40;4.45;;;36.50;53.60;;;;;;5056142;28;20194;-69
2023/06/18 10:27:48;;;;;;;4.82;4.45;;;36.40;53.70;;;;;;5074035;28;20182;-68
2023/06/18 10:30:15;;;;;;;7.68;4.35;;;36.20;52.70;;;;;;5073715;28;20166;-68
2023/06/18 10:32:43;;;;;;;5.03;4.63;;;35.80;52.10;;;;;;5083401;28;20249;-69
2023/06/18 10:35:11;;;;;;;5.78;4.10;;;35.20;52.40;;;;;;5094141;28;20181;-69
2023/06/18 10:37:38;;;;;;;6.10;5.13;;;34.90;54.20;;;;;;5094161;28;20169;-68
2023/06/18 10:40:05;;;;;;;6.45;4.70;;;35.30;53.50;;;;;;5093866;28;20215;-69
2023/06/18 10:42:32;;;;;;;5.90;4.20;;;36.20;59.80;;;;;;5094064;28;20178;-68
2023/06/18 10:45:07;;;;;;;4.78;4.10;;;36.50;53.00;;;;;;5081386;28;20198;-69
2023/06/18 10:47:33;;;;;;;7.28;5.35;;;36.90;54.20;;;;;;5073701;28;20173;-68
2023/06/18 10:50:08;;;;;;;5.13;4.35;;;36.70;51.90;;;;;;5072720;28;20196;-68
2023/06/18 10:52:39;;;;;;;6.70;4.90;;;36.40;54.90;;;;;;5086649;28;20222;-68
2023/06/18 10:55:26;;;;;;;6.32;4.63;;;36.30;51.10;;;;;;5093804;28;20200;-69
2023/06/18 10:58:05;;;;;;;4.90;4.40;;;36.20;51.80;;;;;;5094337;28;20170;-68
2023/06/18 11:00:41;;;;;;;5.70;4.28;;;36.10;50.00;;;;;;5093374;28;20178;-70
2023/06/18 11:03:14;;;;;;;6.25;4.97;;;35.90;51.40;;;;;;5093758;28;20200;-69
2023/06/18 11:05:42;;;;;;;5.53;4.43;;;35.80;49.20;;;;;;5093546;28;20404;-69
2023/06/18 11:08:09;;;;;;;5.18;4.70;;;35.80;52.10;;;;;;5093642;28;20269;-70
2023/06/18 11:10:37;;;;;;;6.45;4.22;;;35.80;51.80;;;;;;5092939;28;20246;-70
2023/06/18 11:13:04;;;;;;;6.80;4.20;;;36.00;50.80;;;;;;5093516;28;20212;-69
2023/06/18 11:15:30;;;;;;;6.90;4.18;;;36.00;52.90;;;;;;5093090;28;20269;-69
2023/06/18 11:18:00;;;;;;;5.35;4.60;;;36.20;51.80;;;;;;5091760;28;20246;-69
2023/06/18 11:20:29;;;;;;;5.30;4.20;;;36.30;49.50;;;;;;5092940;28;20630;-69
2023/06/18 11:22:56;;;;;;;5.20;4.65;;;36.20;48.90;;;;;;5093349;28;20462;-70
2023/06/18 11:25:24;;;;;;;4.47;4.07;;;36.00;52.10;;;;;;5092751;28;20280;-69
2023/06/18 11:27:49;;;;;;;5.00;4.30;;;36.30;52.90;;;;;;5075048;28;20208;-69
2023/06/18 11:30:18;;;;;;;5.20;4.60;;;36.50;47.40;;;;;;5092808;28;20193;-69
2023/06/18 11:32:45;;;;;;;10.10;4.47;;;36.70;50.50;;;;;;5093097;28;20166;-69
2023/06/18 11:35:12;;;;;;;5.72;5.05;;;36.90;48.80;;;;;;5092965;28;20561;-70
2023/06/18 11:37:42;;;;;;;6.07;4.80;;;36.90;49.80;;;;;;5093047;28;20631;-69
2023/06/18 11:40:09;;;;;;;5.22;4.78;;;37.10;53.20;;;;;;5092353;28;20268;-69
2023/06/18 11:42:37;;;;;;;7.55;5.47;;;37.20;48.20;;;;;;5092821;28;20261;-69
2023/06/18 11:45:05;;;;;;;5.00;4.50;;;37.20;51.60;;;;;;5092768;28;20197;-69
2023/06/18 11:47:34;;;;;;;5.72;4.43;;;37.60;51.10;;;;;;5092640;28;20639;-69
2023/06/18 11:50:00;;;;;;;4.40;4.00;;;37.60;47.00;;;;;;5090838;28;20272;-70
2023/06/18 11:52:27;;;;;;;5.20;4.50;;;37.50;49.90;;;;;;5092413;28;20586;-70
2023/06/18 11:54:54;;;;;;;8.38;4.15;;;37.40;48.50;;;;;;5092731;28;20551;-69
2023/06/18 11:57:22;;;;;;;6.60;5.07;;;37.20;51.90;;;;;;5092452;28;20256;-70
2023/06/18 11:59:52;;;;;;;5.97;4.90;;;36.90;48.80;;;;;;5092328;28;20541;-69
2023/06/18 12:02:23;;;;;;;4.93;4.43;;;36.70;46.80;;;;;;5073347;28;20169;-70
2023/06/18 12:04:50;;;;;;;4.50;4.10;;;36.40;50.60;;;;;;5092391;28;20204;-70
2023/06/18 12:07:23;;;;;;;6.13;4.10;;;36.20;49.10;;;;;;5092380;28;20219;-69
2023/06/18 12:09:51;;;;;;;4.40;4.00;;;36.10;47.30;;;;;;5092181;28;20243;-69
2023/06/18 12:12:26;;;;;;;5.25;4.85;;;35.80;50.00;;;;;;5092217;28;20657;-69
2023/06/18 12:15:24;;;;;;;8.00;5.53;;;35.50;50.40;;;;;;5092380;28;20302;-70
2023/06/18 12:18:12;;;;;;;11.35;5.32;;;35.20;45.80;;;;;;5074035;28;20169;-70
2023/06/18 12:20:39;;;;;;;6.78;4.75;;;34.90;49.40;;;;;;5092094;28;20184;-69
2023/06/18 12:23:05;;;;;;;6.65;4.57;;;35.00;49.00;;;;;;5082142;28;20635;-69
2023/06/18 12:25:32;;;;;;;5.05;4.60;;;34.90;48.30;;;;;;5071532;28;20198;-70
2023/06/18 12:28:02;;;;;;;6.18;4.93;;;34.80;48.30;;;;;;5071596;28;20272;-68
2023/06/18 12:30:30;;;;;;;5.88;4.65;;;34.70;50.10;;;;;;5091604;28;20206;-69
2023/06/18 12:33:05;;;;;;;4.93;4.53;;;34.60;49.70;;;;;;5091725;28;20181;-69
2023/06/18 12:35:31;;;;;;;4.93;4.53;;;34.50;47.90;;;;;;5073394;28;20633;-69
2023/06/18 12:38:08;;;;;;;8.82;5.18;;;34.40;51.60;;;;;;5090645;28;20207;-69
2023/06/18 12:40:46;;;;;;;5.45;4.70;;;34.10;47.60;;;;;;5091308;28;20176;-69
2023/06/18 12:43:13;;;;;;;6.55;4.95;;;33.70;48.70;;;;;;5073681;28;20201;-68
2023/06/18 12:45:39;;;;;;;5.88;4.50;;;33.40;50.50;;;;;;5073112;28;20296;-69